createdAt,value
2018-08-06T00:02:17.852Z,18.30
2018-08-06T00:04:46.063Z,18.30
2018-08-06T00:07:14.402Z,18.30
2018-08-06T00:09:42.617Z,18.20
2018-08-06T00:12:10.807Z,18.20
2018-08-06T00:14:39.058Z,18.10
2018-08-06T00:17:07.372Z,18.10
2018-08-06T00:19:35.556Z,18.00
2018-08-06T00:22:03.783Z,18.00
2018-08-06T00:24:31.968Z,18.00
2018-08-06T00:27:00.193Z,18.00
2018-08-06T00:29:28.415Z,18.00
2018-08-06T00:31:56.559Z,18.00
2018-08-06T00:34:24.741Z,17.90
2018-08-06T00:36:52.896Z,17.90
2018-08-06T00:39:21.109Z,17.90
2018-08-06T00:41:49.302Z,17.90
2018-08-06T00:44:17.471Z,17.80
2018-08-06T00:46:45.656Z,17.80
2018-08-06T00:49:13.836Z,17.70
2018-08-06T00:51:42.024Z,17.70
2018-08-06T00:54:10.194Z,17.60
2018-08-06T00:56:38.368Z,17.60
2018-08-06T00:59:06.549Z,17.50
2018-08-06T01:01:34.759Z,17.50
2018-08-06T01:04:02.971Z,17.50
2018-08-06T01:06:31.152Z,17.40
2018-08-06T01:08:59.328Z,17.40
2018-08-06T01:11:27.515Z,17.40
2018-08-06T01:13:55.691Z,17.40
2018-08-06T01:16:23.861Z,17.30
2018-08-06T01:18:52.027Z,17.30
2018-08-06T01:21:20.215Z,17.30
2018-08-06T01:23:48.395Z,17.20
2018-08-06T01:26:16.621Z,17.20
2018-08-06T01:28:44.767Z,17.20
2018-08-06T01:31:12.968Z,17.10
2018-08-06T01:33:41.138Z,17.10
2018-08-06T01:36:09.354Z,17.10
2018-08-06T01:38:37.553Z,17.10
2018-08-06T01:41:05.958Z,17.10
2018-08-06T01:43:34.139Z,17.10
2018-08-06T01:46:02.309Z,17.10
2018-08-06T01:48:30.503Z,17.10
2018-08-06T01:50:58.710Z,17.10
2018-08-06T01:53:26.895Z,17.00
2018-08-06T01:55:55.099Z,17.00
2018-08-06T01:58:23.268Z,17.00
2018-08-06T02:00:51.472Z,16.90
2018-08-06T02:03:19.647Z,16.90
2018-08-06T02:05:47.806Z,16.90
2018-08-06T02:08:15.991Z,16.80
2018-08-06T02:10:44.167Z,16.80
2018-08-06T02:13:12.351Z,16.80
2018-08-06T02:15:40.561Z,16.70
2018-08-06T02:18:08.749Z,16.70
2018-08-06T02:20:36.939Z,16.70
2018-08-06T02:23:05.315Z,16.70
2018-08-06T02:25:33.499Z,16.60
2018-08-06T02:28:01.696Z,16.60
2018-08-06T02:30:29.897Z,16.60
2018-08-06T02:32:58.056Z,16.50
2018-08-06T02:35:26.262Z,16.50
2018-08-06T02:37:54.607Z,16.50
2018-08-06T02:40:22.875Z,16.40
2018-08-06T02:42:51.167Z,16.40
2018-08-06T02:45:20.151Z,16.40
2018-08-06T02:47:48.407Z,16.40
2018-08-06T02:50:16.599Z,16.30
2018-08-06T02:52:45.018Z,16.30
2018-08-06T02:55:14.471Z,16.20
2018-08-06T02:57:42.700Z,16.20
2018-08-06T03:00:13.091Z,16.20
2018-08-06T03:02:41.739Z,16.20
2018-08-06T03:05:12.011Z,16.10
2018-08-06T03:07:40.511Z,16.00
2018-08-06T03:10:08.740Z,16.00
2018-08-06T03:12:36.920Z,16.00
2018-08-06T03:15:06.024Z,16.00
2018-08-06T03:17:34.225Z,16.00
2018-08-06T03:20:02.416Z,16.00
2018-08-06T03:22:30.607Z,16.00
2018-08-06T03:24:58.791Z,15.90
2018-08-06T03:27:26.968Z,15.90
2018-08-06T03:29:55.233Z,15.80
2018-08-06T03:32:23.453Z,15.90
2018-08-06T03:34:51.642Z,15.80
2018-08-06T03:37:19.839Z,15.80
2018-08-06T03:39:48.061Z,15.80
2018-08-06T03:42:16.336Z,15.80
2018-08-06T03:44:44.540Z,15.70
2018-08-06T03:47:12.769Z,15.70
2018-08-06T03:49:41.003Z,15.80
2018-08-06T03:52:09.295Z,15.70
2018-08-06T03:54:37.505Z,15.70
2018-08-06T03:57:05.710Z,15.70
2018-08-06T03:59:33.880Z,15.70
2018-08-06T04:02:02.085Z,15.70
2018-08-06T04:04:31.154Z,15.70
2018-08-06T04:06:59.352Z,15.70
2018-08-06T04:09:27.559Z,15.70
2018-08-06T04:11:55.767Z,15.70
2018-08-06T04:14:24.852Z,15.70
2018-08-06T04:16:53.036Z,15.70
2018-08-06T04:19:21.211Z,15.60
2018-08-06T04:21:49.408Z,15.70
2018-08-06T04:24:17.605Z,15.70
2018-08-06T04:26:45.764Z,15.70
2018-08-06T04:29:13.980Z,15.70
2018-08-06T04:31:42.180Z,15.70
2018-08-06T04:34:10.387Z,15.70
2018-08-06T04:36:38.545Z,15.70
2018-08-06T04:39:07.077Z,15.80
2018-08-06T04:41:35.289Z,15.80
2018-08-06T04:44:03.501Z,15.80
2018-08-06T04:46:31.710Z,15.80
2018-08-06T04:48:59.916Z,15.90
2018-08-06T04:51:28.103Z,16.00
2018-08-06T04:53:56.288Z,16.00
2018-08-06T04:56:24.475Z,16.10
2018-08-06T04:58:52.794Z,16.10
2018-08-06T05:01:20.940Z,16.20
2018-08-06T05:03:49.692Z,16.40
2018-08-06T05:06:17.859Z,16.60
2018-08-06T05:08:46.041Z,16.90
2018-08-06T05:11:14.250Z,17.10
2018-08-06T05:13:42.458Z,17.30
2018-08-06T05:16:10.591Z,17.40
2018-08-06T05:18:38.785Z,17.50
2018-08-06T05:21:06.955Z,17.70
2018-08-06T05:23:45.355Z,17.80
2018-08-06T05:26:13.555Z,18.00
2018-08-06T05:28:41.801Z,18.10
2018-08-06T05:31:09.986Z,18.20
2018-08-06T05:33:38.533Z,18.30
2018-08-06T05:36:06.821Z,18.40
2018-08-06T05:38:35.040Z,18.60
2018-08-06T05:41:03.242Z,18.70
2018-08-06T05:43:31.435Z,18.90
2018-08-06T05:45:59.647Z,19.30
2018-08-06T05:48:27.844Z,19.80
2018-08-06T05:50:56.015Z,20.30
2018-08-06T05:53:24.247Z,20.80
2018-08-06T05:55:52.426Z,21.20
2018-08-06T05:58:20.657Z,21.60
2018-08-06T06:00:48.825Z,22.00
2018-08-06T06:03:17.039Z,21.90
2018-08-06T06:05:45.192Z,22.00
2018-08-06T06:08:13.540Z,22.20
2018-08-06T06:10:41.754Z,22.30
2018-08-06T06:13:09.927Z,22.50
2018-08-06T06:15:38.091Z,22.70
2018-08-06T06:18:06.281Z,22.80
2018-08-06T06:20:34.526Z,22.90
2018-08-06T06:23:02.687Z,22.90
2018-08-06T06:25:30.877Z,22.90
2018-08-06T06:27:59.052Z,22.90
2018-08-06T06:30:27.232Z,23.20
2018-08-06T06:32:55.403Z,23.50
2018-08-06T06:35:23.581Z,23.40
2018-08-06T06:37:51.759Z,23.60
2018-08-06T06:40:19.946Z,24.00
2018-08-06T06:42:48.150Z,23.80
2018-08-06T06:45:16.727Z,23.60
2018-08-06T06:47:44.935Z,24.00
2018-08-06T06:50:13.138Z,24.20
2018-08-06T06:52:41.296Z,24.50
2018-08-06T06:55:11.876Z,24.30
2018-08-06T06:57:40.289Z,24.50
2018-08-06T07:00:09.264Z,24.70
2018-08-06T07:02:37.426Z,24.70
2018-08-06T07:05:06.072Z,24.60
2018-08-06T07:07:34.571Z,25.00
2018-08-06T07:10:02.780Z,25.00
2018-08-06T07:12:30.957Z,25.10
2018-08-06T07:14:59.152Z,25.10
2018-08-06T07:17:27.300Z,25.50
2018-08-06T07:19:55.471Z,25.70
2018-08-06T07:22:24.762Z,25.70
2018-08-06T07:24:53.707Z,25.70
2018-08-06T07:27:21.904Z,25.50
2018-08-06T07:29:50.076Z,25.80
2018-08-06T07:32:18.242Z,26.00
2018-08-06T07:34:46.548Z,26.10
2018-08-06T07:37:14.752Z,26.10
2018-08-06T07:39:42.929Z,26.00
2018-08-06T07:42:11.093Z,26.10
2018-08-06T07:44:39.271Z,26.10
2018-08-06T07:47:07.489Z,26.30
2018-08-06T07:49:35.619Z,26.30
2018-08-06T07:52:03.774Z,26.30
2018-08-06T07:54:31.940Z,26.60
2018-08-06T07:57:00.117Z,26.70
2018-08-06T07:59:28.265Z,27.10
2018-08-06T08:01:56.403Z,27.10
2018-08-06T08:04:24.615Z,27.20
2018-08-06T08:06:52.768Z,27.50
2018-08-06T08:09:20.939Z,27.70
2018-08-06T08:11:49.358Z,27.80
2018-08-06T08:14:17.516Z,27.60
2018-08-06T08:16:45.662Z,27.50
2018-08-06T08:19:13.937Z,27.10
2018-08-06T08:21:42.107Z,27.10
2018-08-06T08:24:10.327Z,27.20
2018-08-06T08:26:38.505Z,27.00
2018-08-06T08:29:06.696Z,26.80
2018-08-06T08:31:34.889Z,26.70
2018-08-06T08:34:03.098Z,26.80
2018-08-06T08:36:31.261Z,26.90
2018-08-06T08:38:59.402Z,26.80
2018-08-06T08:41:27.607Z,27.10
2018-08-06T08:43:55.791Z,27.10
2018-08-06T08:46:23.994Z,27.40
2018-08-06T08:48:52.148Z,27.40
2018-08-06T08:51:20.304Z,27.40
2018-08-06T08:53:48.475Z,27.40
2018-08-06T08:56:16.659Z,27.40
2018-08-06T08:58:44.950Z,27.50
2018-08-06T09:01:13.085Z,27.50
2018-08-06T09:03:41.231Z,27.50
2018-08-06T09:06:09.460Z,27.60
2018-08-06T09:08:37.638Z,27.60
2018-08-06T09:11:05.911Z,27.80
2018-08-06T09:13:34.517Z,27.70
2018-08-06T09:16:02.729Z,27.80
2018-08-06T09:18:30.903Z,28.30
2018-08-06T09:20:59.079Z,28.50
2018-08-06T09:23:27.231Z,28.80
2018-08-06T09:25:55.383Z,28.50
2018-08-06T09:28:23.560Z,28.50
2018-08-06T09:30:51.751Z,29.00
2018-08-06T09:33:19.904Z,29.00
2018-08-06T09:35:48.102Z,29.40
2018-08-06T09:38:16.263Z,29.90
2018-08-06T09:40:44.442Z,30.40
2018-08-06T09:43:12.598Z,30.30
2018-08-06T09:45:40.749Z,30.60
2018-08-06T09:48:08.944Z,30.80
2018-08-06T09:50:37.114Z,31.10
2018-08-06T09:53:05.539Z,31.60
2018-08-06T09:55:33.732Z,31.20
2018-08-06T09:58:01.984Z,31.00
2018-08-06T10:00:35.410Z,30.70
2018-08-06T10:03:03.599Z,30.70
2018-08-06T10:05:31.799Z,31.50
2018-08-06T10:07:59.967Z,32.10
2018-08-06T10:10:28.140Z,32.00
2018-08-06T10:12:56.310Z,31.90
2018-08-06T10:15:24.517Z,31.70
2018-08-06T10:17:53.926Z,31.90
2018-08-06T10:20:23.276Z,31.70
2018-08-06T10:22:51.503Z,31.90
2018-08-06T10:25:19.734Z,32.20
2018-08-06T10:27:48.273Z,31.70
2018-08-06T10:30:17.788Z,31.90
2018-08-06T10:32:46.053Z,32.20
2018-08-06T10:35:15.022Z,33.00
2018-08-06T10:37:43.327Z,33.10
2018-08-06T10:40:20.087Z,32.70
2018-08-06T10:42:48.209Z,32.10
2018-08-06T10:45:18.224Z,32.20
2018-08-06T10:47:46.539Z,32.90
2018-08-06T10:50:14.683Z,33.10
2018-08-06T10:52:42.865Z,32.80
2018-08-06T10:55:11.511Z,32.50
2018-08-06T10:57:41.096Z,32.90
2018-08-06T11:00:10.957Z,32.60
2018-08-06T11:02:39.155Z,32.80
2018-08-06T11:05:09.552Z,33.00
2018-08-06T11:07:37.881Z,32.80
2018-08-06T11:10:09.199Z,32.90
2018-08-06T11:12:37.811Z,32.70
2018-08-06T11:15:08.861Z,32.70
2018-08-06T11:17:37.731Z,32.50
2018-08-06T11:20:07.843Z,32.20
2018-08-06T11:22:36.214Z,32.10
2018-08-06T11:25:04.606Z,31.90
2018-08-06T11:27:32.823Z,31.80
2018-08-06T11:30:01.263Z,31.90
2018-08-06T11:32:29.696Z,32.10
2018-08-06T11:34:58.255Z,32.20
2018-08-06T11:37:26.468Z,31.90
2018-08-06T11:39:54.683Z,32.00
2018-08-06T11:42:22.854Z,32.00
2018-08-06T11:44:51.052Z,32.10
2018-08-06T11:47:19.297Z,32.20
2018-08-06T11:49:47.461Z,31.90
2018-08-06T11:52:15.699Z,31.60
2018-08-06T11:54:43.871Z,31.70
2018-08-06T11:57:12.070Z,32.00
2018-08-06T11:59:40.223Z,32.10
2018-08-06T12:02:08.524Z,32.00
2018-08-06T12:04:36.691Z,31.90
2018-08-06T12:07:04.912Z,31.80
2018-08-06T12:09:33.059Z,31.90
2018-08-06T12:12:01.225Z,31.90
2018-08-06T12:14:29.403Z,32.10
2018-08-06T12:16:57.588Z,32.10
2018-08-06T12:19:25.751Z,32.00
2018-08-06T12:21:53.977Z,31.90
2018-08-06T12:24:22.306Z,31.80
2018-08-06T12:26:50.518Z,31.80
2018-08-06T12:29:18.731Z,31.80
2018-08-06T12:31:46.977Z,31.80
2018-08-06T12:34:15.201Z,32.00
2018-08-06T12:36:43.433Z,32.20
2018-08-06T12:39:13.544Z,32.00
2018-08-06T12:41:42.675Z,32.10
2018-08-06T12:44:12.008Z,32.10
2018-08-06T12:46:40.606Z,32.10
2018-08-06T12:49:09.205Z,32.20
2018-08-06T12:51:37.657Z,32.50
2018-08-06T12:54:06.228Z,32.40
2018-08-06T12:56:34.420Z,32.40
2018-08-06T12:59:02.623Z,32.30
2018-08-06T13:01:30.847Z,32.40
2018-08-06T13:03:59.143Z,32.40
2018-08-06T13:06:27.453Z,32.60
2018-08-06T13:08:55.718Z,32.60
2018-08-06T13:11:23.953Z,32.70
2018-08-06T13:13:52.218Z,32.70
2018-08-06T13:16:20.565Z,32.90
2018-08-06T13:18:48.744Z,32.90
2018-08-06T13:21:16.948Z,32.80
2018-08-06T13:23:45.173Z,32.80
2018-08-06T13:26:13.345Z,32.90
2018-08-06T13:28:41.531Z,32.90
2018-08-06T13:31:09.715Z,33.10
2018-08-06T13:33:37.879Z,33.30
2018-08-06T13:36:06.064Z,33.40
2018-08-06T13:38:34.248Z,33.30
2018-08-06T13:41:02.465Z,33.00
2018-08-06T13:43:30.673Z,33.00
2018-08-06T13:45:58.860Z,33.00
2018-08-06T13:48:27.065Z,33.10
2018-08-06T13:50:55.284Z,32.90
2018-08-06T13:53:23.510Z,32.80
2018-08-06T13:55:51.641Z,32.90
2018-08-06T13:58:19.828Z,33.00
2018-08-06T14:00:48.024Z,33.00
2018-08-06T14:03:16.320Z,33.10
2018-08-06T14:05:44.528Z,33.10
2018-08-06T14:08:12.868Z,33.00
2018-08-06T14:10:41.036Z,33.10
2018-08-06T14:13:09.231Z,33.10
2018-08-06T14:15:37.457Z,33.10
2018-08-06T14:18:05.662Z,33.20
2018-08-06T14:20:33.848Z,33.30
2018-08-06T14:23:02.037Z,33.30
2018-08-06T14:25:30.270Z,33.20
2018-08-06T14:27:58.486Z,33.30
2018-08-06T14:30:26.925Z,33.20
2018-08-06T14:32:55.113Z,33.20
2018-08-06T14:35:23.358Z,33.20
2018-08-06T14:37:51.716Z,33.20
2018-08-06T14:40:19.943Z,33.20
2018-08-06T14:42:48.237Z,33.00
2018-08-06T14:45:16.556Z,33.10
2018-08-06T14:47:44.737Z,33.20
2018-08-06T14:50:14.199Z,33.30
2018-08-06T14:52:42.386Z,33.20
2018-08-06T14:55:10.655Z,33.40
2018-08-06T14:57:39.983Z,33.30
2018-08-06T15:00:17.485Z,33.40
2018-08-06T15:02:46.425Z,33.60
2018-08-06T15:05:14.638Z,33.40
2018-08-06T15:07:42.864Z,33.40
2018-08-06T15:10:12.013Z,33.40
2018-08-06T15:12:40.264Z,33.30
2018-08-06T15:15:10.225Z,33.20
2018-08-06T15:17:38.421Z,33.20
2018-08-06T15:20:08.827Z,33.10
2018-08-06T15:22:37.077Z,33.10
2018-08-06T15:25:06.888Z,33.10
2018-08-06T15:27:35.103Z,33.10
2018-08-06T15:30:03.332Z,33.20
2018-08-06T15:32:32.686Z,33.40
2018-08-06T15:35:01.613Z,33.40
2018-08-06T15:37:29.814Z,33.40
2018-08-06T15:39:57.996Z,33.40
2018-08-06T15:42:26.204Z,33.40
2018-08-06T15:44:54.391Z,33.30
2018-08-06T15:47:22.650Z,33.30
2018-08-06T15:49:50.896Z,33.30
2018-08-06T15:52:19.085Z,33.20
2018-08-06T15:54:47.306Z,33.20
2018-08-06T15:57:16.511Z,33.30
2018-08-06T15:59:44.725Z,33.30
2018-08-06T16:02:12.945Z,33.20
2018-08-06T16:04:41.176Z,33.30
2018-08-06T16:07:09.388Z,33.40
2018-08-06T16:09:37.616Z,33.50
2018-08-06T16:12:05.907Z,33.40
2018-08-06T16:14:34.090Z,33.40
2018-08-06T16:17:02.298Z,33.40
2018-08-06T16:19:30.910Z,33.60
2018-08-06T16:21:59.144Z,33.60
2018-08-06T16:24:27.338Z,33.60
2018-08-06T16:26:55.541Z,33.80
2018-08-06T16:29:23.764Z,34.00
2018-08-06T16:31:52.021Z,33.90
2018-08-06T16:34:20.285Z,33.90
2018-08-06T16:36:48.488Z,33.80
2018-08-06T16:39:16.661Z,33.70
2018-08-06T16:41:44.845Z,33.60
2018-08-06T16:44:13.059Z,33.60
2018-08-06T16:46:41.309Z,33.80
2018-08-06T16:49:10.065Z,33.80
2018-08-06T16:51:38.309Z,33.60
2018-08-06T16:54:06.616Z,33.40
2018-08-06T16:56:34.812Z,33.40
2018-08-06T16:59:03.094Z,33.30
2018-08-06T17:01:31.330Z,33.30
2018-08-06T17:03:59.529Z,33.40
2018-08-06T17:06:27.777Z,33.60
2018-08-06T17:08:55.977Z,33.60
2018-08-06T17:11:24.294Z,33.40
2018-08-06T17:13:52.506Z,33.40
2018-08-06T17:16:20.703Z,33.40
2018-08-06T17:18:48.962Z,33.30
2018-08-06T17:21:17.232Z,33.20
2018-08-06T17:23:45.449Z,33.20
2018-08-06T17:26:13.620Z,33.20
2018-08-06T17:28:41.889Z,33.20
2018-08-06T17:31:10.672Z,33.60
2018-08-06T17:33:38.974Z,34.10
2018-08-06T17:36:07.220Z,34.20
2018-08-06T17:38:35.565Z,34.30
2018-08-06T17:41:04.297Z,34.30
2018-08-06T17:43:32.467Z,34.00
2018-08-06T17:46:00.677Z,33.80
2018-08-06T17:48:28.887Z,33.50
2018-08-06T17:50:57.093Z,33.20
2018-08-06T17:53:25.300Z,32.80
2018-08-06T17:55:53.530Z,32.50
2018-08-06T17:58:21.713Z,32.30
2018-08-06T18:00:50.118Z,32.10
2018-08-06T18:03:18.318Z,32.10
2018-08-06T18:05:46.561Z,32.00
2018-08-06T18:08:14.829Z,31.90
2018-08-06T18:10:43.024Z,31.80
2018-08-06T18:13:11.220Z,31.70
2018-08-06T18:15:39.440Z,31.50
2018-08-06T18:18:07.640Z,31.50
2018-08-06T18:20:36.727Z,31.40
2018-08-06T18:23:04.957Z,31.30
2018-08-06T18:25:33.148Z,31.20
2018-08-06T18:28:01.347Z,31.10
2018-08-06T18:30:29.543Z,31.10
2018-08-06T18:32:57.736Z,31.10
2018-08-06T18:35:26.100Z,31.10
2018-08-06T18:37:54.282Z,31.00
2018-08-06T18:40:22.616Z,30.70
2018-08-06T18:42:50.810Z,30.40
2018-08-06T18:45:20.236Z,30.10
2018-08-06T18:47:49.253Z,29.80
2018-08-06T18:50:18.093Z,29.50
2018-08-06T18:52:47.098Z,29.30
2018-08-06T18:55:15.803Z,29.00
2018-08-06T18:57:44.742Z,28.70
2018-08-06T19:00:15.541Z,28.40
2018-08-06T19:02:43.831Z,28.20
2018-08-06T19:05:12.159Z,27.90
2018-08-06T19:07:41.160Z,27.70
2018-08-06T19:10:10.122Z,27.40
2018-08-06T19:12:43.773Z,27.10
2018-08-06T19:15:12.304Z,26.90
2018-08-06T19:17:45.761Z,26.70
2018-08-06T19:20:14.059Z,26.60
2018-08-06T19:22:42.458Z,26.40
2018-08-06T19:25:15.915Z,26.20
2018-08-06T19:27:44.535Z,26.00
2018-08-06T19:30:12.928Z,25.90
2018-08-06T19:32:41.231Z,25.80
2018-08-06T19:35:09.552Z,25.60
2018-08-06T19:37:42.996Z,25.50
2018-08-06T19:40:11.832Z,25.40
2018-08-06T19:42:45.447Z,25.20
2018-08-06T19:45:14.043Z,25.10
2018-08-06T19:47:42.857Z,25.00
2018-08-06T19:50:16.436Z,24.90
2018-08-06T19:52:44.610Z,24.70
2018-08-06T19:56:17.314Z,24.60
2018-08-06T19:58:45.564Z,24.50
2018-08-06T20:01:13.792Z,24.30
2018-08-06T20:03:42.020Z,24.20
2018-08-06T20:06:10.282Z,24.00
2018-08-06T20:08:38.522Z,23.90
2018-08-06T20:11:07.313Z,23.80
2018-08-06T20:13:35.527Z,23.80
2018-08-06T20:16:04.094Z,23.70
2018-08-06T20:18:32.369Z,23.50
2018-08-06T20:21:00.621Z,23.40
2018-08-06T20:23:28.861Z,23.30
2018-08-06T20:25:57.053Z,23.20
2018-08-06T20:28:25.303Z,23.10
2018-08-06T20:30:53.524Z,23.10
2018-08-06T20:33:21.727Z,23.00
2018-08-06T20:35:49.944Z,22.90
2018-08-06T20:38:18.138Z,22.80
2018-08-06T20:40:46.384Z,22.80
2018-08-06T20:43:14.579Z,22.70
2018-08-06T20:45:42.789Z,22.60
2018-08-06T20:48:11.160Z,22.50
2018-08-06T20:50:39.526Z,22.40
2018-08-06T20:53:07.773Z,22.30
2018-08-06T20:55:35.981Z,22.20
2018-08-06T20:58:04.253Z,22.10
2018-08-06T21:00:32.531Z,22.10
2018-08-06T21:03:00.837Z,22.00
2018-08-06T21:05:29.001Z,22.00
2018-08-06T21:07:57.220Z,21.90
2018-08-06T21:10:25.428Z,21.80
2018-08-06T21:12:53.623Z,21.80
2018-08-06T21:15:21.842Z,21.70
2018-08-06T21:17:50.056Z,21.70
2018-08-06T21:20:19.097Z,21.60
2018-08-06T21:22:48.292Z,21.50
2018-08-06T21:25:16.657Z,21.40
2018-08-06T21:27:46.040Z,21.40
2018-08-06T21:30:16.690Z,21.30
2018-08-06T21:32:50.957Z,21.20
2018-08-06T21:35:20.043Z,21.20
2018-08-06T21:37:51.274Z,21.20
2018-08-06T21:40:20.113Z,21.10
2018-08-06T21:42:48.758Z,21.10
2018-08-06T21:45:16.994Z,21.00
2018-08-06T21:47:45.379Z,21.00
2018-08-06T21:50:14.084Z,20.90
2018-08-06T21:52:42.290Z,20.90
2018-08-06T21:55:10.877Z,20.90
2018-08-06T21:57:39.303Z,20.80
2018-08-06T22:00:40.292Z,20.80
2018-08-06T22:03:10.236Z,20.80
2018-08-06T22:05:38.472Z,20.80
2018-08-06T22:08:06.678Z,20.70
2018-08-06T22:10:34.884Z,20.60
2018-08-06T22:13:03.152Z,20.60
2018-08-06T22:15:31.349Z,20.50
2018-08-06T22:17:59.612Z,20.50
2018-08-06T22:20:27.804Z,20.40
2018-08-06T22:22:56.140Z,20.30
2018-08-06T22:25:24.547Z,20.30
2018-08-06T22:27:52.770Z,20.20
2018-08-06T22:30:20.965Z,20.20
2018-08-06T22:32:49.209Z,20.10
2018-08-06T22:35:17.413Z,20.10
2018-08-06T22:37:45.624Z,20.10
2018-08-06T22:40:14.080Z,20.00
2018-08-06T22:42:42.379Z,20.00
2018-08-06T22:45:11.727Z,19.90
2018-08-06T22:47:40.624Z,19.90
2018-08-06T22:50:10.378Z,19.80
2018-08-06T22:52:38.920Z,19.80
2018-08-06T22:55:08.023Z,19.80
2018-08-06T22:57:36.241Z,19.70
2018-08-06T23:00:06.246Z,19.70
2018-08-06T23:02:34.421Z,19.70
2018-08-06T23:05:02.704Z,19.70
2018-08-06T23:07:30.911Z,19.70
2018-08-06T23:09:59.117Z,19.60
2018-08-06T23:12:27.305Z,19.60
2018-08-06T23:14:55.463Z,19.60
2018-08-06T23:17:23.640Z,19.70
2018-08-06T23:19:51.822Z,19.70
2018-08-06T23:22:20.011Z,19.70
2018-08-06T23:24:48.224Z,19.70
2018-08-06T23:27:16.393Z,19.70
2018-08-06T23:29:44.567Z,19.70
2018-08-06T23:32:12.751Z,19.60
2018-08-06T23:34:40.902Z,19.50
2018-08-06T23:37:09.121Z,19.40
2018-08-06T23:39:37.310Z,19.40
2018-08-06T23:42:05.628Z,19.40
2018-08-06T23:44:34.138Z,19.40
2018-08-06T23:47:02.389Z,19.30
2018-08-06T23:49:30.669Z,19.30
2018-08-06T23:51:58.918Z,19.30
2018-08-06T23:54:27.108Z,19.30
2018-08-06T23:56:55.349Z,19.20
2018-08-06T23:59:23.766Z,19.20
